Time;durP1;ratioP1;P1;durP2;ratioP2;P2;SDS_P1;SDS_P2;PMS_P1;PMS_P2;Temp;Humidity;BMP_temperature;BMP_pressure;BME280_temperature;BME280_humidity;BME280_pressure;Samples;Min_cycle;Max_cycle;Signal;HPM_P1;HPM_P2
2021/12/30 00:01:16;;;;;;;125.57;40.78;;;;;;;3.52;100.00;100418.34;6305397;22;20050;-87
2021/12/30 00:03:47;;;;;;;236.05;41.35;;;;;;;3.48;100.00;100420.38;6306141;22;19991;-85
2021/12/30 00:06:18;;;;;;;214.18;41.42;;;;;;;3.60;100.00;100406.31;6245463;22;20016;-85
2021/12/30 00:08:45;;;;;;;115.95;39.45;;;;;;;3.91;100.00;100409.16;6267031;22;20043;-84
2021/12/30 00:11:11;;;;;;;166.13;41.13;;;;;;;3.73;100.00;100393.09;6258817;22;19997;-86
2021/12/30 00:13:39;;;;;;;104.65;39.05;;;;;;;4.01;100.00;100399.59;6219051;22;20013;-85
2021/12/30 00:16:05;;;;;;;157.65;42.75;;;;;;;3.72;100.00;100395.81;6218911;22;20013;-84
2021/12/30 00:18:31;;;;;;;117.55;38.53;;;;;;;3.63;100.00;100405.25;6218205;22;20020;-84
2021/12/30 00:21:08;;;;;;;117.60;41.88;;;;;;;3.62;100.00;100408.81;6244612;22;20016;-85
2021/12/30 00:23:34;;;;;;;148.80;40.40;;;;;;;3.55;100.00;100423.34;6244531;22;20012;-84
2021/12/30 00:26:02;;;;;;;154.80;43.33;;;;;;;3.51;100.00;100424.56;6192934;23;20008;-87
2021/12/30 00:28:28;;;;;;;189.80;42.88;;;;;;;3.73;100.00;100427.16;6241769;22;20032;-84
2021/12/30 00:30:54;;;;;;;234.10;40.63;;;;;;;3.66;100.00;100423.34;6238862;22;20015;-86
2021/12/30 00:36:16;;;;;;;167.82;37.97;;;;;;;3.82;100.00;100429.03;6275452;22;20023;-85
2021/12/30 00:38:44;;;;;;;85.63;37.22;;;;;;;3.96;100.00;100431.41;6246390;22;20143;-88
2021/12/30 00:41:11;;;;;;;129.20;36.15;;;;;;;3.68;100.00;100418.00;6236649;23;20001;-85
2021/12/30 00:46:23;;;;;;;181.15;37.53;;;;;;;3.74;100.00;100414.88;6280363;22;20030;-85
2021/12/30 00:48:52;;;;;;;115.32;37.30;;;;;;;3.79;100.00;100416.19;6298769;22;20051;-87
2021/12/30 00:51:31;;;;;;;89.03;35.92;;;;;;;3.91;100.00;100414.38;6292796;22;20004;-85
2021/12/30 00:54:28;;;;;;;99.97;33.83;;;;;;;3.89;100.00;100429.38;6293256;22;20080;-86
2021/12/30 00:57:03;;;;;;;147.90;36.08;;;;;;;3.57;100.00;100445.88;6294314;22;20004;-86
2021/12/30 00:59:31;;;;;;;134.60;36.33;;;;;;;3.52;100.00;100437.53;6287102;22;20012;-87
2021/12/30 01:01:58;;;;;;;104.20;37.55;;;;;;;3.56;100.00;100453.84;6268097;22;20022;-88
2021/12/30 01:07:07;;;;;;;94.57;37.03;;;;;;;3.77;100.00;100435.63;6168395;23;20080;-87
2021/12/30 01:09:36;;;;;;;100.55;36.60;;;;;;;3.89;100.00;100426.75;6144585;23;20014;-85
2021/12/30 01:12:05;;;;;;;85.93;36.90;;;;;;;3.74;100.00;100428.00;6169595;23;20020;-85
2021/12/30 01:14:35;;;;;;;80.07;35.97;;;;;;;3.82;100.00;100434.28;6143776;23;20009;-86
2021/12/30 01:17:28;;;;;;;112.15;37.25;;;;;;;3.92;100.00;100440.47;6142994;23;20040;-84
2021/12/30 01:19:53;;;;;;;94.18;36.55;;;;;;;3.86;100.00;100445.38;6274174;22;20390;-89
2021/12/30 01:22:24;;;;;;;109.47;36.75;;;;;;;3.72;100.00;100453.47;6258336;22;20007;-85
2021/12/30 01:24:51;;;;;;;126.05;39.10;;;;;;;3.62;100.00;100448.97;6259642;22;20034;-84
2021/12/30 01:27:23;;;;;;;97.72;38.45;;;;;;;3.70;100.00;100471.13;6258964;22;20341;-86
2021/12/30 01:29:49;;;;;;;94.07;40.55;;;;;;;3.75;100.00;100476.81;6287349;22;20119;-83
2021/12/30 01:32:17;;;;;;;136.90;39.95;;;;;;;3.70;100.00;100481.59;6290715;22;20066;-84
2021/12/30 01:34:48;;;;;;;122.72;40.40;;;;;;;3.59;100.00;100478.03;6257155;22;20340;-88
2021/12/30 01:37:18;;;;;;;101.28;39.15;;;;;;;3.52;100.00;100491.69;6204036;22;20915;-87
2021/12/30 01:39:44;;;;;;;91.13;39.17;;;;;;;3.54;100.00;100502.91;6281057;22;20020;-83
2021/12/30 01:42:11;;;;;;;89.53;39.28;;;;;;;3.57;100.00;100506.13;6275299;22;20028;-85
2021/12/30 01:44:38;;;;;;;120.45;38.42;;;;;;;3.52;100.00;100510.88;6207569;23;20036;-83
2021/12/30 01:47:05;;;;;;;133.25;38.35;;;;;;;3.41;100.00;100517.91;6178693;23;20023;-83
2021/12/30 01:49:40;;;;;;;164.18;37.53;;;;;;;3.38;100.00;100521.56;6229940;23;20039;-86
2021/12/30 01:52:12;;;;;;;120.00;36.78;;;;;;;3.29;100.00;100518.81;6230735;23;20009;-83
2021/12/30 01:55:00;;;;;;;107.85;36.15;;;;;;;3.48;100.00;100514.69;6235248;23;20011;-82
2021/12/30 01:57:41;;;;;;;169.05;36.67;;;;;;;3.44;100.00;100529.00;6230697;23;20012;-83
2021/12/30 02:00:14;;;;;;;80.82;35.20;;;;;;;3.49;100.00;100526.84;6231275;23;20432;-82
2021/12/30 02:02:41;;;;;;;178.20;36.47;;;;;;;3.47;100.00;100533.16;6205881;23;20004;-82
2021/12/30 02:05:13;;;;;;;168.25;37.63;;;;;;;3.44;100.00;100533.38;6207533;23;20013;-82
2021/12/30 02:07:58;;;;;;;183.02;38.80;;;;;;;3.45;100.00;100535.88;6183988;23;20057;-86
2021/12/30 02:10:25;;;;;;;125.47;34.75;;;;;;;3.50;100.00;100535.53;6192578;23;20017;-85
2021/12/30 02:13:00;;;;;;;102.07;35.30;;;;;;;3.77;100.00;100524.72;6202629;23;20016;-84
2021/12/30 02:15:27;;;;;;;;;;;;;;;3.80;100.00;100517.47;6202779;23;20321;-85
2021/12/30 02:17:54;;;;;;;134.75;33.95;;;;;;;3.60;100.00;100537.34;6198507;23;20279;-83
2021/12/30 02:20:46;;;;;;;104.22;32.85;;;;;;;3.64;100.00;100522.22;6201966;23;20013;-85
2021/12/30 02:23:23;;;;;;;74.75;33.83;;;;;;;3.66;100.00;100512.44;6210749;23;20090;-85
2021/12/30 02:26:15;;;;;;;88.30;32.17;;;;;;;3.63;100.00;100524.00;6206407;23;20019;-85
2021/12/30 02:31:36;;;;;;;107.95;31.75;;;;;;;3.47;100.00;100525.28;6277842;22;20073;-82
2021/12/30 02:34:27;;;;;;;92.57;32.45;;;;;;;3.46;100.00;100527.06;6292231;22;20022;-87
2021/12/30 02:36:52;;;;;;;115.53;32.90;;;;;;;3.39;100.00;100533.72;6292409;22;20169;-86
2021/12/30 02:39:23;;;;;;;72.07;32.92;;;;;;;3.42;100.00;100519.56;6293163;22;20044;-84
2021/12/30 02:44:52;;;;;;;137.27;33.30;;;;;;;3.36;100.00;100514.78;6232919;22;20020;-84
2021/12/30 02:47:18;;;;;;;77.55;32.05;;;;;;;3.44;100.00;100518.50;6178116;23;20008;-88
2021/12/30 02:49:50;;;;;;;78.95;29.65;;;;;;;3.44;100.00;100536.84;6183188;23;20407;-87
2021/12/30 02:52:17;;;;;;;99.15;30.13;;;;;;;3.39;100.00;100535.50;6231655;23;20005;-86
2021/12/30 02:54:44;;;;;;;71.20;29.80;;;;;;;3.45;100.00;100529.78;6252623;22;20012;-84
2021/12/30 02:57:18;;;;;;;67.38;30.08;;;;;;;3.54;100.00;100513.41;6262048;22;20016;-83
2021/12/30 02:59:46;;;;;;;59.22;29.83;;;;;;;3.62;100.00;100526.72;6234909;22;20044;-85
2021/12/30 03:02:13;;;;;;;70.25;30.33;;;;;;;3.51;100.00;100532.78;6230587;23;20463;-84
2021/12/30 03:05:18;;;;;;;84.35;29.88;;;;;;;3.44;100.00;100539.47;6284047;22;20065;-85
2021/12/30 03:07:44;;;;;;;77.20;32.10;;;;;;;3.45;100.00;100520.16;6249339;22;20110;-85
2021/12/30 03:10:16;;;;;;;95.90;33.25;;;;;;;3.38;100.00;100533.84;6280629;22;20247;-84
2021/12/30 03:13:32;;;;;;;78.75;32.92;;;;;;;3.38;100.00;100544.34;6247886;22;20088;-85
2021/12/30 03:16:25;;;;;;;94.53;32.03;;;;;;;3.47;100.00;100547.09;6188140;23;20017;-84
2021/12/30 03:18:51;;;;;;;86.38;31.13;;;;;;;3.45;100.00;100545.50;6214229;23;20012;-85
2021/12/30 03:21:23;;;;;;;67.50;30.65;;;;;;;3.42;100.00;100538.72;6202157;23;20009;-86
2021/12/30 03:23:49;;;;;;;64.47;30.73;;;;;;;3.52;100.00;100550.19;6178498;23;20407;-87
2021/12/30 03:26:20;;;;;;;96.20;31.75;;;;;;;3.44;100.00;100551.72;6202152;23;20009;-85
2021/12/30 03:28:52;;;;;;;67.90;32.00;;;;;;;3.35;100.00;100544.53;6148718;23;20024;-84
2021/12/30 03:31:31;;;;;;;86.43;32.20;;;;;;;3.42;100.00;100564.09;6199321;23;20033;-84
2021/12/30 03:34:19;;;;;;;56.03;29.42;;;;;;;3.36;100.00;100567.16;6225443;22;20023;-88
2021/12/30 03:36:59;;;;;;;58.35;29.45;;;;;;;3.51;100.00;100558.19;6293519;22;20046;-86
2021/12/30 03:39:26;;;;;;;65.28;29.42;;;;;;;3.33;100.00;100557.78;6291578;22;20016;-85
2021/12/30 03:41:51;;;;;;;72.70;30.17;;;;;;;3.42;100.00;100557.06;6264188;22;20066;-88
2021/12/30 03:44:17;;;;;;;71.53;31.33;;;;;;;3.30;100.00;100568.47;6206567;23;20431;-84
2021/12/30 03:46:45;;;;;;;71.60;33.20;;;;;;;3.27;100.00;100555.63;6231706;23;20009;-85
2021/12/30 03:49:15;;;;;;;70.88;32.33;;;;;;;3.29;100.00;100576.44;6228885;23;20031;-85
2021/12/30 03:51:45;;;;;;;49.28;22.42;;;;;;;3.33;100.00;100578.72;6232012;23;20076;-83
2021/12/30 03:54:14;;;;;;;90.75;30.98;;;;;;;3.25;100.00;100580.25;6183065;23;20012;-83
2021/12/30 03:59:21;;;;;;;93.18;32.17;;;;;;;3.29;100.00;100598.22;6203980;23;20013;-82
2021/12/30 04:01:48;;;;;;;79.10;32.17;;;;;;;3.20;100.00;100592.84;6202721;23;20017;-85
2021/12/30 04:04:19;;;;;;;97.63;32.17;;;;;;;3.17;100.00;100607.00;6178521;23;20020;-88
2021/12/30 04:06:45;;;;;;;95.40;32.05;;;;;;;3.23;100.00;100610.94;6248233;22;20034;-86
2021/12/30 04:09:12;;;;;;;92.50;32.38;;;;;;;3.28;100.00;100627.97;6268959;22;20023;-84
2021/12/30 04:11:49;;;;;;;82.93;32.30;;;;;;;3.26;100.00;100621.19;6272516;22;20062;-86
2021/12/30 04:14:39;;;;;;;76.65;34.03;;;;;;;3.32;100.00;100618.94;6265265;22;20016;-84
2021/12/30 04:17:11;;;;;;;62.22;31.98;;;;;;;3.45;100.00;100624.94;6267329;23;19992;-80
2021/12/30 04:19:37;;;;;;;79.22;33.38;;;;;;;3.38;100.00;100631.59;6264940;22;20034;-84
2021/12/30 04:22:06;;;;;;;80.05;32.05;;;;;;;3.28;100.00;100633.22;6261337;22;20016;-84
2021/12/30 04:24:34;;;;;;;102.35;30.73;;;;;;;3.19;100.00;100639.13;6255886;22;20067;-85
2021/12/30 04:26:59;;;;;;;95.15;31.85;;;;;;;3.23;100.00;100637.97;6262457;23;20008;-85
2021/12/30 04:29:37;;;;;;;80.07;31.05;;;;;;;3.35;100.00;100644.06;6260007;23;20047;-88
2021/12/30 04:32:03;;;;;;;62.78;30.75;;;;;;;3.25;100.00;100638.69;6257028;23;20035;-84
2021/12/30 04:34:38;;;;;;;71.20;30.08;;;;;;;3.30;100.00;100657.53;6257641;22;19992;-86
2021/12/30 04:37:07;;;;;;;84.43;28.70;;;;;;;3.21;100.00;100642.50;6257734;23;20388;-84
2021/12/30 04:39:33;;;;;;;60.13;31.00;;;;;;;3.21;100.00;100655.59;6256659;23;20024;-83
2021/12/30 04:42:15;;;;;;;92.67;30.03;;;;;;;3.22;100.00;100652.00;6260428;23;20139;-83
2021/12/30 04:44:43;;;;;;;50.13;28.90;;;;;;;3.42;100.00;100658.41;6259710;22;20710;-88
2021/12/30 04:47:09;;;;;;;100.32;28.40;;;;;;;3.29;100.00;100650.59;6260530;22;20008;-86
2021/12/30 04:49:35;;;;;;;63.90;26.35;;;;;;;3.16;100.00;100646.38;6259778;22;20093;-83
2021/12/30 04:52:04;;;;;;;61.55;27.40;;;;;;;3.14;100.00;100654.38;6260895;22;20035;-84
2021/12/30 04:54:32;;;;;;;42.45;20.75;;;;;;;3.36;100.00;100659.69;6257511;22;20059;-86
2021/12/30 04:56:58;;;;;;;83.93;26.55;;;;;;;3.32;100.00;100670.50;6256948;23;20038;-88
2021/12/30 04:59:29;;;;;;;64.80;26.58;;;;;;;3.30;100.00;100668.00;6260096;22;20012;-84
2021/12/30 05:01:55;;;;;;;78.60;26.08;;;;;;;3.31;100.00;100672.31;6260789;22;20012;-83
2021/12/30 05:04:21;;;;;;;77.72;27.17;;;;;;;3.16;100.00;100681.25;6262512;22;20015;-84
2021/12/30 05:09:35;;;;;;;61.20;27.63;;;;;;;3.25;100.00;100670.09;6198164;23;20019;-90
2021/12/30 05:12:01;;;;;;;71.45;28.35;;;;;;;3.24;100.00;100672.84;6197290;23;20013;-89
2021/12/30 05:14:27;;;;;;;76.55;28.45;;;;;;;3.28;100.00;100679.56;6196961;23;20009;-86
2021/12/30 05:16:55;;;;;;;49.03;28.55;;;;;;;3.28;100.00;100675.13;6198289;23;20024;-85
2021/12/30 05:19:23;;;;;;;62.13;28.02;;;;;;;3.35;100.00;100676.34;6195544;23;20020;-85
2021/12/30 05:21:49;;;;;;;50.45;26.50;;;;;;;3.36;100.00;100674.56;6198149;23;20013;-89
2021/12/30 05:24:18;;;;;;;47.55;27.60;;;;;;;3.34;100.00;100689.56;6171024;23;20036;-85
2021/12/30 05:26:51;;;;;;;48.88;26.05;;;;;;;3.29;100.00;100692.53;6200392;23;20017;-86
2021/12/30 05:29:22;;;;;;;58.03;24.27;;;;;;;3.49;100.00;100699.75;6207608;23;20044;-81
2021/12/30 05:31:50;;;;;;;54.58;24.85;;;;;;;3.57;100.00;100694.81;6200765;23;20071;-87
2021/12/30 05:34:18;;;;;;;43.42;24.23;;;;;;;3.69;100.00;100711.38;6173273;23;20031;-85
2021/12/30 05:36:48;;;;;;;81.97;25.63;;;;;;;3.52;100.00;100710.00;6200446;23;20084;-87
2021/12/30 05:39:13;;;;;;;51.33;26.20;;;;;;;3.37;100.00;100719.00;6171775;23;20040;-85
2021/12/30 05:41:39;;;;;;;71.90;28.30;;;;;;;3.31;100.00;100711.59;6173511;23;20023;-85
2021/12/30 05:44:05;;;;;;;57.60;27.13;;;;;;;3.34;100.00;100708.75;6197753;23;20005;-85
2021/12/30 05:46:34;;;;;;;48.50;27.73;;;;;;;3.51;100.00;100718.81;6197111;23;20016;-92
2021/12/30 05:49:23;;;;;;;54.63;25.17;;;;;;;3.54;100.00;100718.63;6199250;23;20417;-86
2021/12/30 05:51:49;;;;;;;60.83;26.30;;;;;;;3.37;100.00;100729.47;6196963;23;20072;-89
2021/12/30 05:54:17;;;;;;;68.43;25.17;;;;;;;3.30;100.00;100727.41;6199135;23;20020;-81
2021/12/30 05:56:43;;;;;;;94.88;25.67;;;;;;;3.14;100.00;100746.00;6197450;23;20031;-86
2021/12/30 05:59:21;;;;;;;86.57;26.17;;;;;;;3.17;100.00;100744.94;6197000;23;20013;-84
2021/12/30 06:01:48;;;;;;;90.10;27.20;;;;;;;3.02;100.00;100745.09;6198126;23;20017;-84
2021/12/30 06:04:13;;;;;;;55.78;26.38;;;;;;;3.02;100.00;100746.84;6196313;23;20024;-84
2021/12/30 06:06:39;;;;;;;89.85;27.83;;;;;;;3.02;100.00;100746.84;6200459;23;20009;-82
2021/12/30 06:09:24;;;;;;;81.60;27.60;;;;;;;2.96;100.00;100745.53;6208873;23;20013;-81
2021/12/30 06:11:57;;;;;;;73.18;27.42;;;;;;;3.06;100.00;100756.19;6190224;23;20012;-82
2021/12/30 06:14:44;;;;;;;46.97;26.88;;;;;;;3.19;100.00;100750.91;6185952;23;20009;-86
2021/12/30 06:17:13;;;;;;;95.05;26.13;;;;;;;3.07;100.00;100760.47;6167022;23;20044;-83
2021/12/30 06:19:45;;;;;;;74.40;26.48;;;;;;;3.03;100.00;100767.72;6200444;23;20384;-87
2021/12/30 06:22:12;;;;;;;47.47;25.00;;;;;;;3.18;100.00;100767.59;6201726;23;20039;-87
2021/12/30 06:27:28;;;;;;;41.95;22.35;;;;;;;3.08;100.00;100791.78;6232455;22;20444;-88
2021/12/30 06:29:57;;;;;;;43.80;21.00;;;;;;;3.33;100.00;100776.94;6235629;23;20063;-87
2021/12/30 06:35:36;;;;;;;36.15;21.10;;;;;;;2.97;100.00;100798.72;6267212;23;20099;-84
2021/12/30 06:38:02;;;;;;;34.75;21.20;;;;;;;2.99;100.00;100800.28;6265634;22;20067;-84
2021/12/30 06:40:33;;;;;;;39.13;21.35;;;;;;;3.10;100.00;100808.22;6244065;23;20008;-83
2021/12/30 06:43:02;;;;;;;67.93;23.25;;;;;;;2.92;100.00;100813.91;6261231;23;20019;-88
2021/12/30 06:45:30;;;;;;;82.38;21.48;;;;;;;2.99;100.00;100815.16;6206251;23;20027;-89
2021/12/30 06:48:00;;;;;;;88.80;22.23;;;;;;;2.78;100.00;100822.72;6262133;23;20031;-86
2021/12/30 06:50:31;;;;;;;117.90;21.60;;;;;;;2.99;100.00;100825.63;6262400;22;20008;-86
2021/12/30 06:53:08;;;;;;;42.45;22.38;;;;;;;3.05;100.00;100822.56;6268289;22;20025;-88
2021/12/30 06:55:33;;;;;;;91.15;21.95;;;;;;;3.09;100.00;100827.50;6290687;22;20070;-88
2021/12/30 06:58:02;;;;;;;100.65;20.52;;;;;;;2.90;100.00;100837.56;6295075;22;20010;-87
2021/12/30 07:00:28;;;;;;;64.25;21.10;;;;;;;3.04;100.00;100837.47;6287828;22;20000;-86
2021/12/30 07:02:54;;;;;;;83.47;20.88;;;;;;;3.09;100.00;100835.34;6236783;22;20007;-88
2021/12/30 07:05:19;;;;;;;60.42;21.05;;;;;;;2.91;100.00;100830.56;6298585;22;20004;-87
2021/12/30 07:07:45;;;;;;;50.75;20.30;;;;;;;3.16;100.00;100833.13;6259782;22;20299;-88
2021/12/30 07:10:34;;;;;;;57.63;20.85;;;;;;;2.95;100.00;100837.28;6270748;22;20011;-87
2021/12/30 07:13:06;;;;;;;64.82;19.30;;;;;;;3.02;100.00;100833.25;6273543;22;20016;-86
2021/12/30 07:15:37;;;;;;;46.58;19.33;;;;;;;3.09;100.00;100839.75;6271448;22;20014;-88
2021/12/30 07:22:01;;;;;;;30.17;16.65;;;;;;;3.08;100.00;100845.94;6240892;22;20066;-88
2021/12/30 07:24:40;;;;;;;42.25;17.08;;;;;;;3.02;100.00;100846.34;6243301;22;20027;-88
2021/12/30 07:27:30;;;;;;;26.85;16.20;;;;;;;3.13;100.00;100855.16;6267980;22;20018;-89
2021/12/30 07:30:13;;;;;;;32.05;15.40;;;;;;;2.73;100.00;100850.13;6267650;22;20008;-85
2021/12/30 07:32:47;;;;;;;46.28;16.65;;;;;;;2.36;100.00;100865.69;6264982;22;20015;-86
2021/12/30 07:38:17;;;;;;;26.47;11.83;;;;;;;2.36;100.00;100881.38;6231624;22;20020;-84
2021/12/30 07:40:50;;;;;;;27.75;16.05;;;;;;;2.45;100.00;100890.41;6219489;23;20023;-83
2021/12/30 07:43:31;;;;;;;31.20;16.25;;;;;;;2.41;100.00;100881.91;6235444;23;20008;-85
2021/12/30 07:46:01;;;;;;;38.70;18.30;;;;;;;2.30;100.00;100876.53;6209509;23;19992;-85
2021/12/30 07:48:34;;;;;;;33.53;17.15;;;;;;;2.28;100.00;100912.44;6234521;23;20008;-84
2021/12/30 07:51:03;;;;;;;55.15;17.92;;;;;;;2.16;100.00;100933.28;6235115;23;20079;-86
2021/12/30 07:53:32;;;;;;;37.17;17.83;;;;;;;2.41;100.00;100921.16;6209645;23;20008;-87
2021/12/30 07:56:23;;;;;;;47.75;18.33;;;;;;;2.24;100.00;100934.47;6203782;23;20020;-90
2021/12/30 08:22:25;;;;;;;112.27;24.10;;;;;;;2.75;100.00;100960.78;6246960;22;20019;-86
2021/12/30 08:24:50;;;;;;;42.17;21.13;;;;;;;2.71;100.00;100956.69;6261239;22;20249;-88
2021/12/30 08:27:20;;;;;;;120.63;22.45;;;;;;;2.66;100.00;100967.47;6263642;22;19999;-87
2021/12/30 08:29:57;;;;;;;74.68;20.70;;;;;;;2.83;100.00;100961.09;6295960;22;20023;-85
2021/12/30 08:32:32;;;;;;;96.95;20.70;;;;;;;2.73;100.00;100965.28;6264401;22;20019;-86
2021/12/30 08:35:29;;;;;;;35.13;15.50;;;;;;;2.95;100.00;100960.31;6259655;22;20027;-91
2021/12/30 08:38:29;;;;;;;71.28;21.88;;;;;;;2.96;100.00;100961.97;6237625;22;20098;-87
2021/12/30 08:53:22;;;;;;;44.43;21.93;;;;;;;3.61;100.00;100987.13;6216047;22;20080;-88
2021/12/30 09:09:35;;;;;;;49.85;20.15;;;;;;;3.74;100.00;101022.97;6244691;23;20243;-83
2021/12/30 09:12:05;;;;;;;42.33;20.73;;;;;;;3.84;100.00;101024.03;6247691;22;20035;-88
2021/12/30 09:14:33;;;;;;;39.07;14.77;;;;;;;3.80;100.00;101025.16;6223080;23;20007;-83
2021/12/30 09:16:59;;;;;;;52.83;19.90;;;;;;;3.90;100.00;101029.69;6247649;23;20008;-86
2021/12/30 09:22:06;;;;;;;60.95;21.90;;;;;;;3.89;100.00;101016.66;6209136;23;20028;-87
2021/12/30 09:24:36;;;;;;;52.13;20.95;;;;;;;4.06;100.00;101022.41;6156718;23;20071;-87
2021/12/30 09:27:02;;;;;;;42.10;20.02;;;;;;;3.92;100.00;101014.66;6174292;23;20020;-86
2021/12/30 09:29:30;;;;;;;40.58;19.38;;;;;;;3.83;100.00;101019.72;6200171;23;20344;-85
2021/12/30 09:31:59;;;;;;;38.78;18.83;;;;;;;3.78;100.00;101027.06;6157767;23;20060;-90
2021/12/30 09:34:29;;;;;;;35.13;20.73;;;;;;;3.82;100.00;101026.72;6153288;23;20027;-89
2021/12/30 09:37:01;;;;;;;35.17;19.77;;;;;;;3.76;100.00;101034.19;6209756;23;20061;-89
2021/12/30 09:44:44;;;;;;;61.83;20.23;;;;;;;3.63;100.00;101027.19;6269625;22;20027;-92
2021/12/30 09:47:20;;;;;;;68.20;22.08;;;;;;;3.61;100.00;101029.03;6221272;23;20075;-92
2021/12/30 09:50:27;;;;;;;75.22;23.17;;;;;;;3.64;100.00;101039.34;6271382;23;20016;-89
2021/12/30 09:53:45;;;;;;;96.15;36.08;;;;;;;3.74;100.00;101043.94;6270661;22;19988;-91
2021/12/30 09:56:15;;;;;;;39.75;21.50;;;;;;;3.57;100.00;101035.47;6268759;23;20023;-84
2021/12/30 09:58:42;;;;;;;65.00;23.55;;;;;;;3.55;100.00;101039.94;6266582;23;20093;-86
2021/12/30 10:01:08;;;;;;;51.08;24.15;;;;;;;3.47;100.00;101042.28;6267319;22;20070;-87
2021/12/30 10:03:36;;;;;;;57.13;26.67;;;;;;;3.44;100.00;101047.72;6262131;23;20016;-87
2021/12/30 10:06:14;;;;;;;84.20;23.70;;;;;;;3.48;100.00;101048.34;6261623;22;20339;-88
2021/12/30 10:09:06;;;;;;;62.50;24.60;;;;;;;3.47;100.00;101042.28;6261031;23;20016;-91
2021/12/30 10:11:49;;;;;;;49.30;25.25;;;;;;;3.44;100.00;101034.63;6259813;23;20038;-87
2021/12/30 10:14:30;;;;;;;73.90;27.17;;;;;;;3.70;100.00;101051.19;6237867;23;20013;-86
2021/12/30 10:17:23;;;;;;;48.60;25.35;;;;;;;3.76;100.00;101063.03;6260200;23;20020;-89
2021/12/30 10:20:28;;;;;;;56.85;27.58;;;;;;;3.90;100.00;101060.28;6233183;23;20023;-84
2021/12/30 10:23:12;;;;;;;47.35;23.83;;;;;;;3.90;100.00;101062.91;6171462;23;20013;-88
2021/12/30 10:25:45;;;;;;;60.13;25.30;;;;;;;3.95;100.00;101058.16;6169166;23;20020;-85
2021/12/30 10:28:24;;;;;;;54.33;25.80;;;;;;;3.79;100.00;101057.56;6156797;23;20048;-85
2021/12/30 10:31:12;;;;;;;53.55;26.67;;;;;;;3.77;100.00;101080.44;6136807;23;20017;-90
2021/12/30 10:34:04;;;;;;;50.25;25.90;;;;;;;3.82;100.00;101062.59;6231491;22;20000;-91
2021/12/30 10:36:47;;;;;;;48.30;24.35;;;;;;;4.00;100.00;101072.66;6244342;22;20043;-92
2021/12/30 10:39:29;;;;;;;43.25;23.13;;;;;;;4.16;100.00;101067.19;6281810;22;20367;-88
2021/12/30 10:41:54;;;;;;;49.47;25.30;;;;;;;4.14;100.00;101075.13;6286993;22;20008;-87
2021/12/30 10:44:20;;;;;;;41.83;23.85;;;;;;;4.12;100.00;101087.53;6289125;22;20065;-84
2021/12/30 10:46:47;;;;;;;45.92;23.92;;;;;;;4.27;100.00;101083.00;6288561;22;20097;-84
2021/12/30 10:49:12;;;;;;;59.60;26.77;;;;;;;4.27;100.00;101069.91;6287784;22;20336;-87
2021/12/30 10:51:46;;;;;;;45.35;24.98;;;;;;;4.06;100.00;101082.72;6288301;22;20036;-86
2021/12/30 10:54:23;;;;;;;51.17;24.40;;;;;;;3.93;100.00;101096.78;6255901;22;20011;-85
2021/12/30 10:57:08;;;;;;;52.13;24.50;;;;;;;3.91;100.00;101086.38;6280803;22;20435;-86
2021/12/30 10:59:43;;;;;;;45.83;23.98;;;;;;;3.96;100.00;101096.56;6299849;22;20046;-87
2021/12/30 11:02:17;;;;;;;47.45;24.20;;;;;;;3.99;100.00;101101.59;6252487;22;20022;-86
2021/12/30 11:04:53;;;;;;;58.05;27.73;;;;;;;3.96;100.00;101099.19;6278676;22;20019;-87
2021/12/30 11:07:25;;;;;;;53.70;26.42;;;;;;;3.97;100.00;101098.25;6282586;22;20087;-91
2021/12/30 11:09:54;;;;;;;56.40;27.90;;;;;;;3.84;100.00;101107.91;6261450;22;20049;-87
2021/12/30 11:12:35;;;;;;;49.47;26.30;;;;;;;3.97;100.00;101098.25;6259904;22;20090;-86
2021/12/30 11:15:33;;;;;;;44.42;25.33;;;;;;;3.99;100.00;101093.72;6283389;22;20439;-86
2021/12/30 11:18:39;;;;;;;45.08;24.67;;;;;;;4.03;100.00;101093.44;6237716;22;20011;-87
2021/12/30 11:21:04;;;;;;;50.90;27.00;;;;;;;4.12;100.00;101086.69;6281088;22;20011;-85
2021/12/30 11:23:31;;;;;;;44.80;24.38;;;;;;;4.00;100.00;101090.19;6231130;22;20470;-83
2021/12/30 11:25:59;;;;;;;40.42;23.60;;;;;;;4.05;100.00;101080.19;6204516;22;20094;-86
2021/12/30 11:28:26;;;;;;;46.85;26.00;;;;;;;4.21;100.00;101091.28;6272988;22;20377;-84
2021/12/30 11:30:52;;;;;;;46.53;24.52;;;;;;;4.27;100.00;101088.25;6280903;22;20015;-83
2021/12/30 11:33:19;;;;;;;45.35;24.10;;;;;;;4.26;100.00;101083.94;6283861;22;20008;-88
2021/12/30 11:35:56;;;;;;;47.30;25.90;;;;;;;4.17;100.00;101076.72;6232326;22;20076;-80
2021/12/30 11:38:33;;;;;;;54.83;26.80;;;;;;;4.25;100.00;101074.38;6209888;22;20064;-81
2021/12/30 11:41:02;;;;;;;36.45;19.80;;;;;;;4.40;100.00;101078.56;6206060;23;20012;-85
2021/12/30 11:43:43;;;;;;;55.58;25.83;;;;;;;4.35;100.00;101078.03;6208385;23;20039;-83
2021/12/30 11:47:00;;;;;;;57.60;25.65;;;;;;;4.28;100.00;101061.06;6250809;22;20050;-85
2021/12/30 11:49:58;;;;;;;46.72;24.85;;;;;;;4.27;100.00;101069.91;6266344;23;20012;-85
2021/12/30 11:53:00;;;;;;;50.35;25.55;;;;;;;4.28;100.00;101071.56;6270256;23;20026;-88
2021/12/30 11:56:03;;;;;;;48.40;25.90;;;;;;;4.24;100.00;101070.13;6269537;23;20013;-88
2021/12/30 11:58:36;;;;;;;46.35;26.23;;;;;;;4.36;100.00;101058.75;6263592;23;20026;-83
2021/12/30 12:01:10;;;;;;;55.38;25.90;;;;;;;4.31;100.00;101070.50;6266104;23;20012;-81
2021/12/30 12:03:40;;;;;;;46.17;26.30;;;;;;;4.29;100.00;101060.13;6265078;22;20012;-86
2021/12/30 12:06:31;;;;;;;51.35;26.85;;;;;;;4.32;100.00;101062.53;6262539;23;20091;-86
2021/12/30 12:09:47;;;;;;;44.70;25.30;;;;;;;4.31;100.00;101063.47;6240370;23;20052;-84
2021/12/30 12:12:57;;;;;;;54.95;26.65;;;;;;;4.33;100.00;101063.38;6222511;22;20004;-87
2021/12/30 12:16:16;;;;;;;53.85;27.55;;;;;;;4.37;100.00;101070.91;6233983;23;20020;-85
2021/12/30 12:19:15;;;;;;;51.80;27.58;;;;;;;4.41;100.00;101077.59;6234840;23;20417;-88
2021/12/30 12:21:44;;;;;;;48.50;27.73;;;;;;;4.49;100.00;101072.66;6145695;23;20034;-87
2021/12/30 12:24:49;;;;;;;47.08;27.58;;;;;;;4.40;100.00;101070.69;6145709;23;19994;-90
2021/12/30 12:27:23;;;;;;;50.42;27.48;;;;;;;4.25;100.00;101074.38;6140406;23;20528;-85
2021/12/30 12:29:55;;;;;;;44.97;26.42;;;;;;;4.36;100.00;101073.63;6139858;23;20010;-85
2021/12/30 12:32:29;;;;;;;45.40;24.73;;;;;;;4.32;100.00;101067.78;6232307;22;20000;-86
2021/12/30 12:35:03;;;;;;;40.88;23.33;;;;;;;4.39;100.00;101068.16;6218316;22;20004;-85
2021/12/30 12:37:40;;;;;;;41.05;23.75;;;;;;;4.27;100.00;101072.50;6237304;22;20023;-88
2021/12/30 12:40:33;;;;;;;51.60;25.83;;;;;;;4.24;100.00;101069.28;6247739;23;20004;-84
2021/12/30 12:43:21;;;;;;;52.78;26.83;;;;;;;4.37;100.00;101065.66;6256539;22;20025;-86
2021/12/30 12:54:12;;;;;;;57.63;27.38;;;;;;;4.49;100.00;101069.19;6268178;23;20004;-83
2021/12/30 12:56:39;;;;;;;60.58;27.98;;;;;;;4.52;100.00;101072.44;6241813;23;20076;-82
2021/12/30 12:59:18;;;;;;;58.22;27.85;;;;;;;4.54;100.00;101082.84;6258996;23;20026;-82
2021/12/30 13:01:47;;;;;;;44.78;25.80;;;;;;;4.39;100.00;101079.50;6236925;23;20011;-82
2021/12/30 13:04:15;;;;;;;50.47;28.23;;;;;;;4.50;100.00;101076.13;6221733;23;20023;-82
2021/12/30 13:07:06;;;;;;;60.95;29.52;;;;;;;4.51;100.00;101068.13;6263764;23;20469;-84
2021/12/30 13:10:01;;;;;;;60.92;29.42;;;;;;;4.46;100.00;101078.13;6228476;23;20091;-82
2021/12/30 13:12:39;;;;;;;53.97;30.40;;;;;;;4.44;100.00;101077.38;6224242;23;20012;-81
2021/12/30 13:15:54;;;;;;;58.60;30.58;;;;;;;4.40;100.00;101070.69;6264521;23;20008;-82
2021/12/30 13:18:20;;;;;;;72.00;28.60;;;;;;;4.45;100.00;101071.19;6281913;22;20004;-84
2021/12/30 13:21:27;;;;;;;50.75;27.95;;;;;;;4.46;100.00;101070.25;6294432;22;20018;-82